sensor_id;sensor_type;location;lat;lon;timestamp;pressure;altitude;pressure_sealevel;temperature;humidity
27840;BME280;15207;42.182;24.308;2023-05-11T00:01:35;99667.72;;;9.85;90.79
27840;BME280;15207;42.182;24.308;2023-05-11T00:04:01;99678.53;;;9.83;90.38
27840;BME280;15207;42.182;24.308;2023-05-11T00:06:26;99679.75;;;9.79;90.64
27840;BME280;15207;42.182;24.308;2023-05-11T00:08:52;99674.91;;;9.71;91.75
27840;BME280;15207;42.182;24.308;2023-05-11T00:11:18;99681.00;;;9.60;92.37
27840;BME280;15207;42.182;24.308;2023-05-11T00:13:44;99683.59;;;9.62;92.16
27840;BME280;15207;42.182;24.308;2023-05-11T00:16:09;99682.06;;;9.58;93.00
27840;BME280;15207;42.182;24.308;2023-05-11T00:18:35;99685.50;;;9.60;93.29
27840;BME280;15207;42.182;24.308;2023-05-11T00:21:01;99688.06;;;9.61;93.55
27840;BME280;15207;42.182;24.308;2023-05-11T00:23:26;99692.78;;;9.71;93.22
27840;BME280;15207;42.182;24.308;2023-05-11T00:25:52;99688.16;;;9.73;93.39
27840;BME280;15207;42.182;24.308;2023-05-11T00:28:18;99692.16;;;9.67;93.89
27840;BME280;15207;42.182;24.308;2023-05-11T00:30:43;99700.47;;;9.75;93.34
27840;BME280;15207;42.182;24.308;2023-05-11T00:33:09;99686.03;;;9.65;93.66
27840;BME280;15207;42.182;24.308;2023-05-11T00:35:35;99699.50;;;9.63;94.06
27840;BME280;15207;42.182;24.308;2023-05-11T00:38:01;99697.34;;;9.69;94.87
27840;BME280;15207;42.182;24.308;2023-05-11T00:40:27;99691.38;;;9.65;94.47
27840;BME280;15207;42.182;24.308;2023-05-11T00:42:52;99686.91;;;9.65;94.93
27840;BME280;15207;42.182;24.308;2023-05-11T00:45:18;99689.78;;;9.75;95.08
27840;BME280;15207;42.182;24.308;2023-05-11T00:47:44;99686.16;;;9.76;94.80
27840;BME280;15207;42.182;24.308;2023-05-11T00:50:09;99685.09;;;9.79;94.27
27840;BME280;15207;42.182;24.308;2023-05-11T00:52:35;99688.50;;;9.55;95.52
27840;BME280;15207;42.182;24.308;2023-05-11T00:55:01;99683.78;;;9.46;96.68
27840;BME280;15207;42.182;24.308;2023-05-11T00:57:26;99685.03;;;9.40;96.34
27840;BME280;15207;42.182;24.308;2023-05-11T00:59:52;99683.31;;;9.26;96.75
27840;BME280;15207;42.182;24.308;2023-05-11T01:02:18;99686.78;;;9.13;97.27
27840;BME280;15207;42.182;24.308;2023-05-11T01:04:43;99697.16;;;9.05;97.99
27840;BME280;15207;42.182;24.308;2023-05-11T01:07:19;99703.78;;;9.12;97.88
27840;BME280;15207;42.182;24.308;2023-05-11T01:09:59;99698.97;;;9.05;98.27
27840;BME280;15207;42.182;24.308;2023-05-11T01:15:26;99697.94;;;8.93;99.36
27840;BME280;15207;42.182;24.308;2023-05-11T01:20:44;99714.84;;;8.93;99.54
27840;BME280;15207;42.182;24.308;2023-05-11T01:31:46;99721.66;;;8.84;100.00
27840;BME280;15207;42.182;24.308;2023-05-11T01:34:17;99713.66;;;8.84;100.00
27840;BME280;15207;42.182;24.308;2023-05-11T01:36:48;99709.91;;;8.87;100.00
27840;BME280;15207;42.182;24.308;2023-05-11T01:39:21;99712.50;;;8.89;100.00
27840;BME280;15207;42.182;24.308;2023-05-11T01:41:51;99714.53;;;8.98;100.00
27840;BME280;15207;42.182;24.308;2023-05-11T01:44:18;99711.44;;;8.91;100.00
27840;BME280;15207;42.182;24.308;2023-05-11T01:46:46;99713.78;;;8.96;100.00
27840;BME280;15207;42.182;24.308;2023-05-11T01:49:13;99710.63;;;9.04;100.00
27840;BME280;15207;42.182;24.308;2023-05-11T01:51:41;99711.47;;;9.04;100.00
27840;BME280;15207;42.182;24.308;2023-05-11T01:54:09;99706.56;;;9.11;100.00
27840;BME280;15207;42.182;24.308;2023-05-11T01:56:37;99709.84;;;9.29;100.00
27840;BME280;15207;42.182;24.308;2023-05-11T01:59:05;99712.53;;;9.42;100.00
27840;BME280;15207;42.182;24.308;2023-05-11T02:01:33;99712.41;;;9.44;100.00
27840;BME280;15207;42.182;24.308;2023-05-11T02:04:02;99707.50;;;9.50;99.79
27840;BME280;15207;42.182;24.308;2023-05-11T02:06:30;99717.66;;;9.45;99.03
27840;BME280;15207;42.182;24.308;2023-05-11T02:08:57;99715.09;;;9.44;99.62
27840;BME280;15207;42.182;24.308;2023-05-11T02:11:25;99719.13;;;9.23;99.12
27840;BME280;15207;42.182;24.308;2023-05-11T02:13:55;99717.94;;;9.15;100.00
27840;BME280;15207;42.182;24.308;2023-05-11T02:16:23;99715.84;;;9.05;100.00
27840;BME280;15207;42.182;24.308;2023-05-11T02:18:50;99709.00;;;9.01;100.00
27840;BME280;15207;42.182;24.308;2023-05-11T02:21:16;99713.59;;;8.99;100.00
27840;BME280;15207;42.182;24.308;2023-05-11T02:23:44;99713.97;;;9.20;100.00
27840;BME280;15207;42.182;24.308;2023-05-11T02:26:13;99710.78;;;9.28;100.00
27840;BME280;15207;42.182;24.308;2023-05-11T02:28:41;99706.63;;;9.24;100.00
27840;BME280;15207;42.182;24.308;2023-05-11T02:31:15;99701.63;;;9.05;100.00
27840;BME280;15207;42.182;24.308;2023-05-11T02:33:44;99709.31;;;8.96;100.00
27840;BME280;15207;42.182;24.308;2023-05-11T02:36:16;99707.34;;;8.85;100.00
27840;BME280;15207;42.182;24.308;2023-05-11T02:38:45;99699.69;;;8.94;100.00
27840;BME280;15207;42.182;24.308;2023-05-11T02:41:16;99697.56;;;8.99;100.00
27840;BME280;15207;42.182;24.308;2023-05-11T02:43:45;99703.06;;;9.10;100.00
27840;BME280;15207;42.182;24.308;2023-05-11T02:46:16;99703.66;;;9.01;100.00
27840;BME280;15207;42.182;24.308;2023-05-11T02:48:48;99710.16;;;8.97;100.00
27840;BME280;15207;42.182;24.308;2023-05-11T02:51:16;99709.19;;;8.98;100.00
27840;BME280;15207;42.182;24.308;2023-05-11T02:53:42;99715.91;;;8.91;100.00
27840;BME280;15207;42.182;24.308;2023-05-11T02:56:09;99714.16;;;9.04;100.00
27840;BME280;15207;42.182;24.308;2023-05-11T02:58:35;99702.28;;;9.08;100.00
27840;BME280;15207;42.182;24.308;2023-05-11T03:01:02;99713.19;;;9.05;100.00
27840;BME280;15207;42.182;24.308;2023-05-11T03:03:30;99712.31;;;9.05;100.00
27840;BME280;15207;42.182;24.308;2023-05-11T03:05:56;99715.91;;;8.91;100.00
27840;BME280;15207;42.182;24.308;2023-05-11T03:08:21;99707.94;;;8.76;100.00
27840;BME280;15207;42.182;24.308;2023-05-11T03:10:47;99713.97;;;8.93;100.00
27840;BME280;15207;42.182;24.308;2023-05-11T03:13:13;99712.63;;;8.72;100.00
27840;BME280;15207;42.182;24.308;2023-05-11T03:15:40;99711.03;;;8.70;100.00
27840;BME280;15207;42.182;24.308;2023-05-11T03:18:08;99720.34;;;8.77;100.00
27840;BME280;15207;42.182;24.308;2023-05-11T03:20:36;99715.72;;;8.66;100.00
27840;BME280;15207;42.182;24.308;2023-05-11T03:23:03;99712.63;;;8.72;100.00
27840;BME280;15207;42.182;24.308;2023-05-11T03:25:31;99715.50;;;8.69;100.00
27840;BME280;15207;42.182;24.308;2023-05-11T03:27:57;99720.72;;;8.71;100.00
27840;BME280;15207;42.182;24.308;2023-05-11T03:30:24;99711.69;;;8.59;100.00
27840;BME280;15207;42.182;24.308;2023-05-11T03:32:51;99715.34;;;8.58;100.00
27840;BME280;15207;42.182;24.308;2023-05-11T03:35:17;99714.38;;;8.59;100.00
27840;BME280;15207;42.182;24.308;2023-05-11T03:37:44;99721.88;;;8.67;100.00
27840;BME280;15207;42.182;24.308;2023-05-11T03:40:11;99727.78;;;8.72;100.00
27840;BME280;15207;42.182;24.308;2023-05-11T03:42:40;99732.38;;;8.70;100.00
27840;BME280;15207;42.182;24.308;2023-05-11T03:45:07;99726.06;;;8.71;100.00
27840;BME280;15207;42.182;24.308;2023-05-11T03:47:34;99717.69;;;8.63;100.00
27840;BME280;15207;42.182;24.308;2023-05-11T03:50:06;99730.13;;;8.64;100.00
27840;BME280;15207;42.182;24.308;2023-05-11T03:52:31;99735.31;;;8.65;100.00
27840;BME280;15207;42.182;24.308;2023-05-11T03:54:57;99737.25;;;8.63;100.00
27840;BME280;15207;42.182;24.308;2023-05-11T03:57:26;99736.94;;;8.68;100.00
27840;BME280;15207;42.182;24.308;2023-05-11T03:59:52;99734.19;;;8.69;100.00
27840;BME280;15207;42.182;24.308;2023-05-11T04:02:18;99732.56;;;8.67;100.00
27840;BME280;15207;42.182;24.308;2023-05-11T04:04:43;99740.09;;;8.75;100.00
27840;BME280;15207;42.182;24.308;2023-05-11T04:07:09;99738.34;;;8.88;100.00
27840;BME280;15207;42.182;24.308;2023-05-11T04:09:35;99743.22;;;8.81;100.00
27840;BME280;15207;42.182;24.308;2023-05-11T04:12:00;99740.03;;;8.89;100.00
27840;BME280;15207;42.182;24.308;2023-05-11T04:14:26;99739.22;;;8.89;100.00
27840;BME280;15207;42.182;24.308;2023-05-11T04:16:51;99735.25;;;8.94;100.00
27840;BME280;15207;42.182;24.308;2023-05-11T04:19:17;99742.31;;;8.95;100.00
27840;BME280;15207;42.182;24.308;2023-05-11T04:21:42;99744.09;;;9.09;100.00
27840;BME280;15207;42.182;24.308;2023-05-11T04:24:08;99743.38;;;9.20;100.00
27840;BME280;15207;42.182;24.308;2023-05-11T04:26:33;99742.22;;;9.24;100.00
27840;BME280;15207;42.182;24.308;2023-05-11T04:28:59;99743.09;;;8.97;100.00
27840;BME280;15207;42.182;24.308;2023-05-11T04:31:25;99749.44;;;8.82;100.00
27840;BME280;15207;42.182;24.308;2023-05-11T04:33:51;99748.66;;;8.80;100.00
27840;BME280;15207;42.182;24.308;2023-05-11T04:36:17;99746.94;;;8.79;100.00
27840;BME280;15207;42.182;24.308;2023-05-11T04:38:42;99747.53;;;8.69;100.00
27840;BME280;15207;42.182;24.308;2023-05-11T04:41:08;99748.09;;;8.75;100.00
27840;BME280;15207;42.182;24.308;2023-05-11T04:43:34;99745.69;;;8.84;100.00
27840;BME280;15207;42.182;24.308;2023-05-11T04:46:00;99755.41;;;8.85;100.00
27840;BME280;15207;42.182;24.308;2023-05-11T04:48:26;99751.22;;;8.81;100.00
27840;BME280;15207;42.182;24.308;2023-05-11T04:50:53;99756.97;;;8.75;100.00
27840;BME280;15207;42.182;24.308;2023-05-11T04:53:19;99746.56;;;8.70;100.00
27840;BME280;15207;42.182;24.308;2023-05-11T04:55:44;99757.81;;;8.76;100.00
27840;BME280;15207;42.182;24.308;2023-05-11T04:58:10;99759.09;;;8.70;100.00
27840;BME280;15207;42.182;24.308;2023-05-11T05:00:36;99765.72;;;8.77;100.00
27840;BME280;15207;42.182;24.308;2023-05-11T05:03:02;99761.53;;;8.73;100.00
27840;BME280;15207;42.182;24.308;2023-05-11T05:05:28;99753.75;;;8.70;100.00
27840;BME280;15207;42.182;24.308;2023-05-11T05:07:54;99754.00;;;8.80;100.00
27840;BME280;15207;42.182;24.308;2023-05-11T05:10:20;99766.09;;;8.85;100.00
27840;BME280;15207;42.182;24.308;2023-05-11T05:12:46;99758.47;;;8.94;100.00
27840;BME280;15207;42.182;24.308;2023-05-11T05:15:12;99764.69;;;9.07;100.00
27840;BME280;15207;42.182;24.308;2023-05-11T05:17:38;99768.97;;;9.10;100.00
27840;BME280;15207;42.182;24.308;2023-05-11T05:20:07;99760.41;;;9.05;100.00
27840;BME280;15207;42.182;24.308;2023-05-11T05:22:33;99761.44;;;9.17;100.00
27840;BME280;15207;42.182;24.308;2023-05-11T05:24:59;99758.16;;;9.26;100.00
27840;BME280;15207;42.182;24.308;2023-05-11T05:27:25;99760.50;;;9.31;100.00
27840;BME280;15207;42.182;24.308;2023-05-11T05:29:51;99761.72;;;9.39;100.00
27840;BME280;15207;42.182;24.308;2023-05-11T05:32:17;99772.53;;;9.51;100.00
27840;BME280;15207;42.182;24.308;2023-05-11T05:34:44;99775.41;;;9.48;99.84
27840;BME280;15207;42.182;24.308;2023-05-11T05:37:11;99777.16;;;9.49;99.87
27840;BME280;15207;42.182;24.308;2023-05-11T05:39:37;99769.53;;;9.43;99.41
27840;BME280;15207;42.182;24.308;2023-05-11T05:42:03;99773.72;;;9.47;98.63
27840;BME280;15207;42.182;24.308;2023-05-11T05:44:29;99778.31;;;9.45;99.16
27840;BME280;15207;42.182;24.308;2023-05-11T05:46:54;99773.59;;;9.48;99.07
27840;BME280;15207;42.182;24.308;2023-05-11T05:49:20;99781.22;;;9.55;99.22
27840;BME280;15207;42.182;24.308;2023-05-11T05:51:47;99787.88;;;9.62;99.19
27840;BME280;15207;42.182;24.308;2023-05-11T05:54:15;99785.75;;;9.67;98.94
27840;BME280;15207;42.182;24.308;2023-05-11T05:56:40;99782.44;;;9.76;98.84
27840;BME280;15207;42.182;24.308;2023-05-11T05:59:07;99779.25;;;9.84;98.47
27840;BME280;15207;42.182;24.308;2023-05-11T06:01:34;99776.03;;;9.92;97.04
27840;BME280;15207;42.182;24.308;2023-05-11T06:04:00;99788.88;;;9.87;96.82
27840;BME280;15207;42.182;24.308;2023-05-11T06:06:25;99786.50;;;9.82;97.35
27840;BME280;15207;42.182;24.308;2023-05-11T06:08:51;99788.53;;;9.78;97.59
27840;BME280;15207;42.182;24.308;2023-05-11T06:11:17;99784.78;;;9.81;96.46
27840;BME280;15207;42.182;24.308;2023-05-11T06:13:43;99781.34;;;9.66;97.02
27840;BME280;15207;42.182;24.308;2023-05-11T06:16:08;99785.97;;;9.77;96.37
27840;BME280;15207;42.182;24.308;2023-05-11T06:18:34;99782.09;;;9.68;96.82
27840;BME280;15207;42.182;24.308;2023-05-11T06:21:00;99794.50;;;9.69;97.31
27840;BME280;15207;42.182;24.308;2023-05-11T06:23:25;99784.91;;;9.79;97.70
27840;BME280;15207;42.182;24.308;2023-05-11T06:25:51;99792.31;;;9.89;97.05
27840;BME280;15207;42.182;24.308;2023-05-11T06:28:17;99791.03;;;9.95;96.12
27840;BME280;15207;42.182;24.308;2023-05-11T06:30:42;99789.44;;;9.92;93.94
27840;BME280;15207;42.182;24.308;2023-05-11T06:33:08;99792.41;;;10.13;94.42
27840;BME280;15207;42.182;24.308;2023-05-11T06:35:35;99786.84;;;10.03;91.90
27840;BME280;15207;42.182;24.308;2023-05-11T06:38:01;99795.50;;;9.94;92.68
27840;BME280;15207;42.182;24.308;2023-05-11T06:40:27;99795.31;;;9.97;92.94
27840;BME280;15207;42.182;24.308;2023-05-11T06:42:53;99786.31;;;10.11;92.78
27840;BME280;15207;42.182;24.308;2023-05-11T06:45:19;99783.75;;;10.23;91.70
27840;BME280;15207;42.182;24.308;2023-05-11T06:47:44;99790.06;;;10.35;90.34
27840;BME280;15207;42.182;24.308;2023-05-11T06:50:10;99793.16;;;10.41;90.87
27840;BME280;15207;42.182;24.308;2023-05-11T06:52:35;99796.16;;;10.24;90.71
27840;BME280;15207;42.182;24.308;2023-05-11T06:55:01;99788.91;;;10.52;91.72
27840;BME280;15207;42.182;24.308;2023-05-11T06:57:27;99789.94;;;10.62;91.80
27840;BME280;15207;42.182;24.308;2023-05-11T06:59:52;99790.50;;;10.54;90.10
27840;BME280;15207;42.182;24.308;2023-05-11T07:02:18;99785.47;;;10.63;90.04
27840;BME280;15207;42.182;24.308;2023-05-11T07:04:43;99785.59;;;10.85;89.93
27840;BME280;15207;42.182;24.308;2023-05-11T07:07:09;99783.19;;;11.07;88.31
27840;BME280;15207;42.182;24.308;2023-05-11T07:09:36;99779.88;;;11.03;86.90
27840;BME280;15207;42.182;24.308;2023-05-11T07:12:02;99785.91;;;10.94;88.37
27840;BME280;15207;42.182;24.308;2023-05-11T07:14:28;99786.03;;;10.92;87.35
27840;BME280;15207;42.182;24.308;2023-05-11T07:16:54;99781.06;;;10.75;87.45
27840;BME280;15207;42.182;24.308;2023-05-11T07:19:19;99778.56;;;10.71;87.64
27840;BME280;15207;42.182;24.308;2023-05-11T07:21:45;99781.06;;;10.75;87.55
27840;BME280;15207;42.182;24.308;2023-05-11T07:24:11;99786.78;;;10.81;87.44
27840;BME280;15207;42.182;24.308;2023-05-11T07:26:37;99782.47;;;10.92;87.20
27840;BME280;15207;42.182;24.308;2023-05-11T07:29:03;99770.81;;;10.93;87.66
27840;BME280;15207;42.182;24.308;2023-05-11T07:31:28;99774.97;;;10.97;86.81
27840;BME280;15207;42.182;24.308;2023-05-11T07:33:55;99779.72;;;11.18;86.44
27840;BME280;15207;42.182;24.308;2023-05-11T07:36:20;99777.47;;;11.11;86.27
27840;BME280;15207;42.182;24.308;2023-05-11T07:38:46;99781.94;;;11.00;86.31
27840;BME280;15207;42.182;24.308;2023-05-11T07:41:11;99782.72;;;10.89;86.37
27840;BME280;15207;42.182;24.308;2023-05-11T07:43:37;99771.25;;;10.87;86.42
27840;BME280;15207;42.182;24.308;2023-05-11T07:46:03;99776.06;;;10.94;87.60
27840;BME280;15207;42.182;24.308;2023-05-11T07:48:28;99784.47;;;11.01;86.62
27840;BME280;15207;42.182;24.308;2023-05-11T07:50:54;99789.28;;;11.09;87.27
27840;BME280;15207;42.182;24.308;2023-05-11T07:53:20;99781.53;;;10.93;86.60
27840;BME280;15207;42.182;24.308;2023-05-11T07:55:45;99778.84;;;10.93;87.99
27840;BME280;15207;42.182;24.308;2023-05-11T07:58:11;99778.91;;;11.04;87.15
27840;BME280;15207;42.182;24.308;2023-05-11T08:00:36;99790.28;;;11.32;85.89
27840;BME280;15207;42.182;24.308;2023-05-11T08:03:02;99788.75;;;11.53;85.25
27840;BME280;15207;42.182;24.308;2023-05-11T08:05:29;99791.34;;;11.54;82.68
27840;BME280;15207;42.182;24.308;2023-05-11T08:07:54;99791.81;;;11.48;83.15
27840;BME280;15207;42.182;24.308;2023-05-11T08:10:20;99782.78;;;11.49;83.58
27840;BME280;15207;42.182;24.308;2023-05-11T08:12:46;99787.84;;;11.65;82.90
27840;BME280;15207;42.182;24.308;2023-05-11T08:15:11;99790.66;;;11.63;81.31
27840;BME280;15207;42.182;24.308;2023-05-11T08:17:37;99785.41;;;11.73;82.55
27840;BME280;15207;42.182;24.308;2023-05-11T08:20:03;99789.00;;;11.49;81.74
27840;BME280;15207;42.182;24.308;2023-05-11T08:22:29;99788.47;;;11.44;81.62
27840;BME280;15207;42.182;24.308;2023-05-11T08:24:55;99787.34;;;11.60;82.94
27840;BME280;15207;42.182;24.308;2023-05-11T08:27:20;99795.09;;;11.51;81.43
27840;BME280;15207;42.182;24.308;2023-05-11T08:29:46;99791.63;;;11.62;81.43
27840;BME280;15207;42.182;24.308;2023-05-11T08:32:12;99797.00;;;11.62;82.63
27840;BME280;15207;42.182;24.308;2023-05-11T08:34:38;99792.78;;;11.83;81.60
27840;BME280;15207;42.182;24.308;2023-05-11T08:37:03;99799.06;;;12.06;81.51
27840;BME280;15207;42.182;24.308;2023-05-11T08:39:29;99788.59;;;12.37;79.65
27840;BME280;15207;42.182;24.308;2023-05-11T08:41:57;99794.72;;;12.62;79.58
27840;BME280;15207;42.182;24.308;2023-05-11T08:44:25;99783.34;;;12.81;82.07
27840;BME280;15207;42.182;24.308;2023-05-11T08:46:51;99792.63;;;12.89;81.19
27840;BME280;15207;42.182;24.308;2023-05-11T08:49:18;99788.81;;;12.91;80.98
27840;BME280;15207;42.182;24.308;2023-05-11T08:51:44;99795.56;;;12.97;80.01
27840;BME280;15207;42.182;24.308;2023-05-11T08:54:10;99786.34;;;13.11;80.83
27840;BME280;15207;42.182;24.308;2023-05-11T08:56:40;99784.47;;;13.23;79.07
27840;BME280;15207;42.182;24.308;2023-05-11T08:59:07;99788.03;;;13.23;76.52
27840;BME280;15207;42.182;24.308;2023-05-11T09:01:34;99777.06;;;13.15;78.01
27840;BME280;15207;42.182;24.308;2023-05-11T09:04:02;99777.06;;;13.15;80.43
27840;BME280;15207;42.182;24.308;2023-05-11T09:06:30;99782.38;;;13.27;79.48
27840;BME280;15207;42.182;24.308;2023-05-11T09:08:57;99782.50;;;13.25;80.30
27840;BME280;15207;42.182;24.308;2023-05-11T09:11:23;99789.09;;;13.32;78.57
27840;BME280;15207;42.182;24.308;2023-05-11T09:13:50;99779.06;;;13.34;79.47
27840;BME280;15207;42.182;24.308;2023-05-11T09:16:16;99774.06;;;13.30;79.72
27840;BME280;15207;42.182;24.308;2023-05-11T09:18:49;99776.88;;;13.28;78.67
27840;BME280;15207;42.182;24.308;2023-05-11T09:21:16;99766.06;;;13.18;78.44
27840;BME280;15207;42.182;24.308;2023-05-11T09:23:42;99768.00;;;13.16;78.77
27840;BME280;15207;42.182;24.308;2023-05-11T09:26:15;99761.84;;;13.26;80.29
27840;BME280;15207;42.182;24.308;2023-05-11T09:28:52;99755.38;;;13.28;75.45
27840;BME280;15207;42.182;24.308;2023-05-11T09:34:15;99740.31;;;12.93;73.55
27840;BME280;15207;42.182;24.308;2023-05-11T09:36:42;99732.72;;;12.98;74.67
27840;BME280;15207;42.182;24.308;2023-05-11T09:39:08;99746.56;;;12.82;74.27
27840;BME280;15207;42.182;24.308;2023-05-11T09:41:34;99735.50;;;12.75;72.66
27840;BME280;15207;42.182;24.308;2023-05-11T09:44:13;99737.63;;;12.93;73.29
27840;BME280;15207;42.182;24.308;2023-05-11T09:46:40;99743.16;;;13.24;72.95
27840;BME280;15207;42.182;24.308;2023-05-11T09:49:06;99736.19;;;13.21;72.21
27840;BME280;15207;42.182;24.308;2023-05-11T09:51:35;99743.16;;;13.24;72.44
27840;BME280;15207;42.182;24.308;2023-05-11T09:54:22;99739.81;;;13.32;72.95
27840;BME280;15207;42.182;24.308;2023-05-11T09:56:54;99734.03;;;13.15;72.35
27840;BME280;15207;42.182;24.308;2023-05-11T09:59:40;99746.22;;;12.87;71.96
27840;BME280;15207;42.182;24.308;2023-05-11T10:02:24;99741.19;;;12.82;72.71
27840;BME280;15207;42.182;24.308;2023-05-11T10:04:52;99737.19;;;12.76;73.43
27840;BME280;15207;42.182;24.308;2023-05-11T10:07:34;99729.38;;;12.73;74.92
27840;BME280;15207;42.182;24.308;2023-05-11T10:10:04;99725.06;;;12.82;76.57
27840;BME280;15207;42.182;24.308;2023-05-11T10:12:31;99724.97;;;12.72;74.97
27840;BME280;15207;42.182;24.308;2023-05-11T10:15:06;99724.38;;;12.68;74.07
27840;BME280;15207;42.182;24.308;2023-05-11T10:17:33;99723.16;;;12.73;73.92
27840;BME280;15207;42.182;24.308;2023-05-11T10:20:00;99722.16;;;12.62;74.26
27840;BME280;15207;42.182;24.308;2023-05-11T10:22:28;99722.72;;;12.89;76.03
27840;BME280;15207;42.182;24.308;2023-05-11T10:24:56;99734.56;;;12.98;72.00
27840;BME280;15207;42.182;24.308;2023-05-11T10:27:22;99732.22;;;13.04;70.97
27840;BME280;15207;42.182;24.308;2023-05-11T10:29:49;99721.81;;;13.11;72.25
27840;BME280;15207;42.182;24.308;2023-05-11T10:32:16;99723.03;;;13.40;72.45
27840;BME280;15207;42.182;24.308;2023-05-11T10:34:44;99716.88;;;13.60;70.03
27840;BME280;15207;42.182;24.308;2023-05-11T10:37:15;99714.03;;;13.62;69.67
27840;BME280;15207;42.182;24.308;2023-05-11T10:39:42;99708.84;;;13.70;71.50
27840;BME280;15207;42.182;24.308;2023-05-11T10:53:20;99707.94;;;14.12;68.85
27840;BME280;15207;42.182;24.308;2023-05-11T10:59:19;99703.00;;;13.65;69.76
27840;BME280;15207;42.182;24.308;2023-05-11T11:01:52;99696.50;;;13.89;73.08
27840;BME280;15207;42.182;24.308;2023-05-11T11:04:23;99694.38;;;14.24;69.36
27840;BME280;15207;42.182;24.308;2023-05-11T11:07:03;99695.44;;;14.43;70.36
27840;BME280;15207;42.182;24.308;2023-05-11T11:09:49;99688.81;;;14.57;69.55
27840;BME280;15207;42.182;24.308;2023-05-11T11:12:15;99698.00;;;14.54;68.83
27840;BME280;15207;42.182;24.308;2023-05-11T11:17:33;99699.84;;;14.44;68.48
27840;BME280;15207;42.182;24.308;2023-05-11T11:20:03;99691.50;;;14.47;69.63
27840;BME280;15207;42.182;24.308;2023-05-11T11:25:07;99683.28;;;14.58;68.76
27840;BME280;15207;42.182;24.308;2023-05-11T11:30:18;99676.50;;;14.74;68.78
27840;BME280;15207;42.182;24.308;2023-05-11T11:32:46;99668.75;;;14.80;68.90
27840;BME280;15207;42.182;24.308;2023-05-11T11:38:10;99668.31;;;14.95;68.26
27840;BME280;15207;42.182;24.308;2023-05-11T11:45:51;99654.84;;;14.95;66.76
27840;BME280;15207;42.182;24.308;2023-05-11T11:48:34;99648.31;;;14.88;66.39
27840;BME280;15207;42.182;24.308;2023-05-11T11:56:00;99648.03;;;15.11;68.00
27840;BME280;15207;42.182;24.308;2023-05-11T12:01:13;99637.38;;;15.29;67.46
27840;BME280;15207;42.182;24.308;2023-05-11T12:03:41;99635.03;;;15.54;66.07
27840;BME280;15207;42.182;24.308;2023-05-11T12:06:10;99628.72;;;15.73;66.38
27840;BME280;15207;42.182;24.308;2023-05-11T12:08:38;99631.69;;;15.80;64.55
27840;BME280;15207;42.182;24.308;2023-05-11T12:11:04;99623.72;;;15.88;64.90
27840;BME280;15207;42.182;24.308;2023-05-11T12:13:31;99625.41;;;15.99;64.23
27840;BME280;15207;42.182;24.308;2023-05-11T12:16:16;99619.56;;;16.04;62.45
27840;BME280;15207;42.182;24.308;2023-05-11T12:18:54;99624.34;;;16.10;62.42
27840;BME280;15207;42.182;24.308;2023-05-11T12:21:23;99624.66;;;16.35;62.31
27840;BME280;15207;42.182;24.308;2023-05-11T12:24:02;99621.28;;;16.51;60.76
27840;BME280;15207;42.182;24.308;2023-05-11T12:26:29;99610.84;;;16.10;60.32
27840;BME280;15207;42.182;24.308;2023-05-11T12:29:12;99604.66;;;16.28;61.02
27840;BME280;15207;42.182;24.308;2023-05-11T12:31:42;99602.13;;;16.44;59.44
27840;BME280;15207;42.182;24.308;2023-05-11T12:34:21;99597.41;;;16.46;57.50
27840;BME280;15207;42.182;24.308;2023-05-11T12:36:52;99592.47;;;16.13;58.79
27840;BME280;15207;42.182;24.308;2023-05-11T12:39:18;99580.50;;;15.88;60.37
27840;BME280;15207;42.182;24.308;2023-05-11T12:41:44;99581.06;;;15.92;62.10
27840;BME280;15207;42.182;24.308;2023-05-11T12:44:11;99575.72;;;16.10;64.10
27840;BME280;15207;42.182;24.308;2023-05-11T12:46:38;99575.72;;;16.38;62.21
27840;BME280;15207;42.182;24.308;2023-05-11T12:49:05;99573.25;;;16.45;60.52
27840;BME280;15207;42.182;24.308;2023-05-11T12:51:47;99565.94;;;16.55;60.70
27840;BME280;15207;42.182;24.308;2023-05-11T12:57:00;99574.66;;;16.67;59.06
27840;BME280;15207;42.182;24.308;2023-05-11T12:59:27;99573.31;;;16.71;59.06
27840;BME280;15207;42.182;24.308;2023-05-11T13:01:59;99565.16;;;16.45;56.29
27840;BME280;15207;42.182;24.308;2023-05-11T13:04:29;99557.28;;;16.05;58.97
27840;BME280;15207;42.182;24.308;2023-05-11T13:06:55;99556.63;;;15.83;61.48
27840;BME280;15207;42.182;24.308;2023-05-11T13:09:24;99562.28;;;16.00;61.48
27840;BME280;15207;42.182;24.308;2023-05-11T13:14:32;99544.78;;;16.04;60.41
27840;BME280;15207;42.182;24.308;2023-05-11T13:16:57;99543.97;;;15.94;61.66
27840;BME280;15207;42.182;24.308;2023-05-11T13:19:27;99536.25;;;16.27;61.32
27840;BME280;15207;42.182;24.308;2023-05-11T13:21:54;99539.19;;;16.52;59.98
27840;BME280;15207;42.182;24.308;2023-05-11T13:24:21;99523.06;;;16.42;59.69
27840;BME280;15207;42.182;24.308;2023-05-11T13:26:47;99531.16;;;16.60;60.14
27840;BME280;15207;42.182;24.308;2023-05-11T13:29:13;99533.13;;;16.76;60.52
27840;BME280;15207;42.182;24.308;2023-05-11T13:31:46;99527.66;;;16.86;60.26
27840;BME280;15207;42.182;24.308;2023-05-11T13:34:12;99524.25;;;16.84;59.61
27840;BME280;15207;42.182;24.308;2023-05-11T13:36:38;99530.88;;;16.90;57.51
27840;BME280;15207;42.182;24.308;2023-05-11T13:39:05;99533.84;;;16.78;58.45
27840;BME280;15207;42.182;24.308;2023-05-11T13:41:30;99526.03;;;16.75;57.24
27840;BME280;15207;42.182;24.308;2023-05-11T13:43:56;99519.03;;;16.46;58.39
27840;BME280;15207;42.182;24.308;2023-05-11T13:46:22;99513.63;;;16.46;61.34
27840;BME280;15207;42.182;24.308;2023-05-11T13:48:48;99515.97;;;16.59;60.42
27840;BME280;15207;42.182;24.308;2023-05-11T13:51:13;99510.38;;;16.61;60.35
27840;BME280;15207;42.182;24.308;2023-05-11T13:53:39;99514.63;;;16.63;61.33
27840;BME280;15207;42.182;24.308;2023-05-11T13:56:05;99508.53;;;16.61;60.04